createdAt,value
2022-12-31T00:02:02.446Z,11.75
2022-12-31T00:04:32.451Z,12.00
2022-12-31T00:07:02.745Z,17.60
2022-12-31T00:09:35.615Z,18.17
2022-12-31T00:12:06.335Z,19.02
2022-12-31T00:14:36.838Z,16.23
2022-12-31T00:17:07.959Z,16.15
2022-12-31T00:19:37.480Z,15.28
2022-12-31T00:22:07.294Z,15.43
2022-12-31T00:24:36.726Z,16.23
2022-12-31T00:27:09.498Z,15.98
2022-12-31T00:29:39.242Z,17.57
2022-12-31T00:32:08.964Z,16.48
2022-12-31T00:34:38.628Z,15.55
2022-12-31T00:37:08.546Z,14.90
2022-12-31T00:39:38.091Z,16.07
2022-12-31T00:42:09.086Z,16.60
2022-12-31T00:44:40.627Z,15.83
2022-12-31T00:47:10.160Z,15.10
2022-12-31T00:49:41.355Z,16.07
2022-12-31T00:52:13.324Z,14.93
2022-12-31T00:54:42.589Z,16.15
2022-12-31T00:57:12.417Z,16.97
2022-12-31T00:59:42.264Z,16.12
2022-12-31T01:02:11.959Z,15.32
2022-12-31T01:04:41.487Z,15.40
2022-12-31T01:07:11.480Z,15.03
2022-12-31T01:09:41.191Z,17.50
2022-12-31T01:12:11.689Z,18.65
2022-12-31T01:14:42.636Z,25.90
2022-12-31T01:17:13.440Z,24.98
2022-12-31T01:19:43.211Z,27.07
2022-12-31T01:22:12.829Z,30.52
2022-12-31T01:24:42.749Z,23.07
2022-12-31T01:27:12.541Z,18.40
2022-12-31T01:29:41.888Z,19.35
2022-12-31T01:32:12.252Z,18.55
2022-12-31T01:34:42.620Z,18.80
2022-12-31T01:37:12.236Z,17.65
2022-12-31T01:39:41.649Z,16.77
2022-12-31T01:42:13.151Z,19.10
2022-12-31T01:44:52.034Z,19.30
2022-12-31T01:47:35.990Z,18.00
2022-12-31T01:50:23.992Z,16.97
2022-12-31T01:52:57.763Z,15.25
2022-12-31T01:55:38.317Z,16.57
2022-12-31T01:58:23.483Z,17.70
2022-12-31T02:00:53.274Z,16.23
2022-12-31T02:03:23.353Z,15.68
2022-12-31T02:06:24.037Z,16.07
2022-12-31T02:08:53.427Z,15.18
2022-12-31T02:11:31.180Z,14.18
2022-12-31T02:14:04.655Z,15.70
2022-12-31T02:16:57.585Z,17.00
2022-12-31T02:19:58.692Z,17.52
2022-12-31T02:23:10.613Z,16.77
2022-12-31T02:26:22.587Z,17.02
2022-12-31T02:29:16.630Z,17.07
2022-12-31T02:31:59.170Z,16.65
2022-12-31T02:34:36.561Z,16.30
2022-12-31T02:37:09.235Z,14.58
2022-12-31T02:39:38.847Z,15.08
2022-12-31T02:42:08.206Z,15.10
2022-12-31T02:44:41.775Z,14.73
2022-12-31T02:47:25.648Z,14.50
2022-12-31T02:50:15.714Z,13.25
2022-12-31T02:53:12.675Z,13.25
2022-12-31T02:56:03.358Z,11.07
2022-12-31T02:59:23.999Z,14.20
2022-12-31T03:02:13.705Z,15.18
2022-12-31T03:04:53.254Z,14.70
2022-12-31T03:07:28.230Z,14.80
2022-12-31T03:09:58.211Z,15.18
2022-12-31T03:12:48.724Z,14.73
2022-12-31T03:15:28.892Z,14.20
2022-12-31T03:18:07.442Z,15.50
2022-12-31T03:20:59.412Z,15.75
2022-12-31T03:23:37.618Z,15.38
2022-12-31T03:26:11.616Z,20.62
2022-12-31T03:28:45.260Z,21.10
2022-12-31T03:31:16.530Z,24.57
2022-12-31T03:33:46.353Z,23.90
2022-12-31T03:36:17.113Z,22.00
2022-12-31T03:38:52.544Z,18.20
2022-12-31T03:41:20.799Z,17.92
2022-12-31T03:43:50.121Z,17.10
2022-12-31T03:46:19.903Z,16.50
2022-12-31T03:48:51.211Z,16.73
2022-12-31T03:51:20.712Z,17.17
2022-12-31T03:53:50.576Z,16.23
2022-12-31T03:56:20.490Z,15.70
2022-12-31T03:58:51.992Z,16.65
2022-12-31T04:01:23.403Z,15.40
2022-12-31T04:03:55.109Z,16.05
2022-12-31T04:06:24.107Z,15.38
2022-12-31T04:08:54.481Z,15.72
2022-12-31T04:11:26.665Z,15.03
2022-12-31T04:13:59.105Z,15.43
2022-12-31T04:16:29.298Z,14.90
2022-12-31T04:19:00.033Z,14.98
2022-12-31T04:21:34.770Z,15.05
2022-12-31T04:24:02.450Z,14.78
2022-12-31T04:26:32.585Z,15.45
2022-12-31T04:29:03.357Z,16.50
2022-12-31T04:31:34.867Z,14.83
2022-12-31T04:34:06.001Z,15.45
2022-12-31T04:36:36.241Z,15.65
2022-12-31T04:39:05.697Z,16.27
2022-12-31T04:41:35.852Z,17.12
2022-12-31T04:44:06.249Z,16.35
2022-12-31T04:46:36.018Z,16.77
2022-12-31T04:49:07.166Z,16.57
2022-12-31T04:51:37.909Z,16.50
2022-12-31T04:54:08.537Z,17.65
2022-12-31T04:56:37.845Z,20.77
2022-12-31T04:59:07.556Z,22.25
2022-12-31T05:01:37.215Z,21.45
2022-12-31T05:04:06.897Z,16.00
2022-12-31T05:06:36.694Z,17.45
2022-12-31T05:09:08.445Z,16.17
2022-12-31T05:11:38.156Z,16.77
2022-12-31T05:14:08.659Z,16.20
2022-12-31T05:16:38.221Z,15.30
2022-12-31T05:19:09.532Z,15.18
2022-12-31T05:21:39.151Z,15.20
2022-12-31T05:24:08.887Z,15.58
2022-12-31T05:26:40.969Z,17.23
2022-12-31T05:29:10.555Z,15.90
2022-12-31T05:31:40.009Z,14.65
2022-12-31T05:34:09.091Z,16.30
2022-12-31T05:36:38.388Z,17.07
2022-12-31T05:39:09.875Z,17.55
2022-12-31T05:41:39.845Z,16.45
2022-12-31T05:44:11.381Z,15.75
2022-12-31T05:46:40.898Z,16.27
2022-12-31T05:49:10.623Z,15.48
2022-12-31T05:51:40.099Z,15.38
2022-12-31T05:54:10.334Z,16.60
2022-12-31T05:56:40.273Z,16.67
2022-12-31T05:59:09.885Z,15.15
2022-12-31T06:01:40.198Z,15.23
2022-12-31T06:04:09.591Z,15.23
2022-12-31T06:06:40.913Z,15.48
2022-12-31T06:09:10.430Z,16.25
2022-12-31T06:11:39.909Z,17.87
2022-12-31T06:14:09.556Z,19.17
2022-12-31T06:16:40.837Z,17.02
2022-12-31T06:19:10.331Z,18.65
2022-12-31T06:21:39.930Z,17.75
2022-12-31T06:24:09.953Z,18.30
2022-12-31T06:26:39.500Z,20.32
2022-12-31T06:29:08.733Z,19.25
2022-12-31T06:31:39.577Z,19.07
2022-12-31T06:34:10.439Z,18.67
2022-12-31T06:36:41.104Z,18.48
2022-12-31T06:39:10.993Z,18.12
2022-12-31T06:41:41.135Z,17.40
2022-12-31T06:44:12.077Z,18.17
2022-12-31T06:46:45.537Z,19.60
2022-12-31T06:49:15.123Z,16.10
2022-12-31T06:51:48.739Z,16.67
2022-12-31T06:54:18.905Z,16.00
2022-12-31T06:56:49.484Z,16.62
2022-12-31T06:59:25.940Z,18.52
2022-12-31T07:02:33.444Z,17.85
2022-12-31T07:05:17.692Z,17.30
2022-12-31T07:08:09.328Z,16.87
2022-12-31T07:11:02.482Z,16.50
2022-12-31T07:13:53.924Z,17.50
2022-12-31T07:16:44.017Z,17.32
2022-12-31T07:19:32.995Z,17.12
2022-12-31T07:22:03.074Z,18.17
2022-12-31T07:24:33.623Z,17.27
2022-12-31T07:27:22.606Z,16.25
2022-12-31T07:30:03.353Z,16.75
2022-12-31T07:32:58.250Z,16.37
2022-12-31T07:36:25.514Z,16.62
2022-12-31T07:39:11.603Z,16.20
2022-12-31T07:42:02.595Z,15.93
2022-12-31T07:44:44.110Z,16.80
2022-12-31T07:47:25.995Z,17.15
2022-12-31T07:49:56.996Z,16.23
2022-12-31T07:52:27.982Z,16.12
2022-12-31T07:54:57.248Z,16.20
2022-12-31T07:57:31.742Z,16.32
2022-12-31T08:00:09.420Z,16.52
2022-12-31T08:03:42.114Z,18.57
2022-12-31T08:06:14.881Z,16.75
2022-12-31T08:08:52.804Z,16.10
2022-12-31T08:11:30.479Z,19.45
2022-12-31T08:14:02.827Z,20.72
2022-12-31T08:16:34.567Z,23.57
2022-12-31T08:19:04.817Z,22.70
2022-12-31T08:21:46.025Z,22.98
2022-12-31T08:25:01.128Z,22.30
2022-12-31T08:28:08.043Z,23.85
2022-12-31T08:30:59.412Z,23.42
2022-12-31T08:33:49.463Z,24.55
2022-12-31T08:36:48.765Z,24.18
2022-12-31T08:39:56.281Z,25.52
2022-12-31T08:42:38.513Z,26.30
2022-12-31T08:45:25.542Z,25.68
2022-12-31T08:48:04.256Z,25.12
2022-12-31T08:50:36.045Z,23.83
2022-12-31T08:53:06.896Z,24.82
2022-12-31T08:55:37.679Z,25.90
2022-12-31T08:58:47.559Z,23.67
2022-12-31T09:01:21.136Z,22.13
2022-12-31T09:04:05.215Z,21.55
2022-12-31T09:06:41.559Z,22.37
2022-12-31T09:09:53.422Z,23.20
2022-12-31T09:12:43.239Z,25.40
2022-12-31T09:15:30.629Z,24.02
2022-12-31T09:18:01.636Z,27.07
2022-12-31T09:20:42.788Z,25.95
2022-12-31T09:23:05.887Z,26.12
2022-12-31T09:25:36.949Z,29.75
2022-12-31T09:28:19.772Z,28.38
2022-12-31T09:31:06.745Z,31.10
2022-12-31T09:34:02.260Z,30.27
2022-12-31T09:36:45.492Z,30.37
2022-12-31T09:39:32.085Z,30.72
2022-12-31T09:42:31.039Z,30.68
2022-12-31T09:45:16.329Z,30.05
2022-12-31T09:47:57.071Z,28.73
2022-12-31T09:50:53.607Z,27.52
2022-12-31T09:53:43.815Z,25.62
2022-12-31T09:56:39.549Z,23.50
2022-12-31T09:59:33.048Z,23.45
2022-12-31T10:02:26.025Z,19.90
2022-12-31T10:05:23.754Z,17.92
2022-12-31T10:08:21.904Z,16.12
2022-12-31T10:10:59.126Z,15.98
2022-12-31T10:13:48.882Z,16.00
2022-12-31T10:16:41.945Z,15.98
2022-12-31T10:19:43.541Z,14.68
2022-12-31T10:22:36.597Z,15.85
2022-12-31T10:25:59.112Z,15.23
2022-12-31T10:29:12.420Z,16.57
2022-12-31T10:32:07.863Z,14.65
2022-12-31T10:35:04.229Z,15.18
2022-12-31T10:38:05.675Z,15.98
2022-12-31T10:41:23.583Z,16.77
2022-12-31T10:44:28.227Z,15.32
2022-12-31T10:47:22.979Z,16.37
2022-12-31T10:50:29.545Z,15.45
2022-12-31T10:53:26.144Z,14.53
2022-12-31T10:56:18.349Z,15.45
2022-12-31T10:58:55.889Z,16.10
2022-12-31T11:01:34.130Z,16.17
2022-12-31T11:04:45.911Z,15.63
2022-12-31T11:07:46.683Z,14.45
2022-12-31T11:10:55.570Z,14.87
2022-12-31T11:14:11.268Z,15.30
2022-12-31T11:17:15.756Z,15.32
2022-12-31T11:19:50.782Z,15.18
2022-12-31T11:22:42.317Z,13.90
2022-12-31T11:25:42.443Z,14.05
2022-12-31T11:28:33.860Z,13.93
2022-12-31T11:31:23.701Z,12.30
2022-12-31T11:34:24.612Z,10.80
2022-12-31T11:37:34.569Z,10.03
2022-12-31T11:40:36.104Z,9.43
2022-12-31T11:43:29.832Z,9.85
2022-12-31T11:46:32.241Z,10.25
2022-12-31T11:49:28.665Z,9.73
2022-12-31T11:52:21.615Z,10.05
2022-12-31T11:55:02.647Z,9.90
2022-12-31T11:57:36.969Z,10.28
2022-12-31T12:00:23.534Z,10.58
2022-12-31T12:03:02.816Z,10.08
2022-12-31T12:05:34.813Z,10.45
2022-12-31T12:08:04.705Z,10.25
2022-12-31T12:10:49.233Z,11.22
2022-12-31T12:13:26.163Z,10.35
2022-12-31T12:16:02.190Z,9.93
2022-12-31T12:19:06.294Z,9.40
2022-12-31T12:21:35.472Z,10.88
2022-12-31T12:24:09.388Z,10.98
2022-12-31T12:26:42.727Z,11.70
2022-12-31T12:29:24.276Z,10.18
2022-12-31T12:32:08.131Z,10.82
2022-12-31T12:34:45.926Z,11.60
2022-12-31T12:37:34.802Z,11.45
2022-12-31T12:40:20.343Z,11.20
2022-12-31T12:42:50.463Z,11.63
2022-12-31T12:45:26.554Z,11.65
2022-12-31T12:48:03.198Z,12.07
2022-12-31T12:50:43.225Z,12.10
2022-12-31T12:53:36.770Z,12.00
2022-12-31T12:56:30.700Z,12.05
2022-12-31T12:59:22.505Z,12.45
2022-12-31T13:02:43.655Z,11.20
2022-12-31T13:05:34.084Z,11.57
2022-12-31T13:08:12.064Z,11.53
2022-12-31T13:10:49.970Z,12.33
2022-12-31T13:13:46.578Z,12.15
2022-12-31T13:16:34.244Z,12.40
2022-12-31T13:19:35.759Z,12.37
2022-12-31T13:22:28.800Z,10.85
2022-12-31T13:25:12.855Z,11.70
2022-12-31T13:27:45.041Z,12.13
2022-12-31T13:30:26.898Z,12.75
2022-12-31T13:33:16.328Z,12.18
2022-12-31T13:35:51.333Z,12.05
2022-12-31T13:38:39.907Z,12.23
2022-12-31T13:41:28.641Z,11.97
2022-12-31T13:44:25.827Z,11.75
2022-12-31T13:47:23.665Z,12.55
2022-12-31T13:50:35.650Z,11.85
2022-12-31T13:53:26.614Z,12.05
2022-12-31T13:56:03.008Z,12.07
2022-12-31T13:58:46.182Z,11.83
2022-12-31T14:01:33.888Z,13.62
2022-12-31T14:04:32.684Z,12.20
2022-12-31T14:07:34.739Z,12.20
2022-12-31T14:10:01.276Z,11.95
2022-12-31T14:12:51.231Z,13.08
2022-12-31T14:15:41.124Z,13.50
2022-12-31T14:18:50.412Z,13.80
2022-12-31T14:21:26.525Z,14.60
2022-12-31T14:24:06.447Z,13.65
2022-12-31T14:26:41.987Z,13.43
2022-12-31T14:29:20.421Z,12.82
2022-12-31T14:32:01.257Z,13.32
2022-12-31T14:34:42.288Z,13.70
2022-12-31T14:37:23.045Z,13.83
2022-12-31T14:40:39.807Z,13.90
2022-12-31T14:43:20.581Z,14.45
2022-12-31T14:46:22.787Z,13.93
2022-12-31T14:49:35.022Z,14.13
2022-12-31T14:52:28.027Z,14.60
2022-12-31T14:55:16.084Z,14.00
2022-12-31T15:00:40.952Z,14.65
2022-12-31T15:03:27.889Z,14.23
2022-12-31T15:06:11.790Z,13.98
2022-12-31T15:09:15.828Z,14.50
2022-12-31T15:12:03.439Z,14.33
2022-12-31T15:17:44.233Z,14.95
2022-12-31T15:20:24.315Z,14.78
2022-12-31T15:22:53.611Z,15.00
2022-12-31T15:25:40.462Z,14.45
2022-12-31T15:28:29.528Z,16.00
2022-12-31T15:31:19.681Z,14.98
2022-12-31T15:34:10.942Z,17.85
2022-12-31T15:36:47.185Z,16.23
2022-12-31T15:39:33.928Z,15.58
2022-12-31T15:42:36.608Z,16.30
2022-12-31T15:44:50.071Z,16.07
2022-12-31T15:47:31.498Z,15.45
2022-12-31T15:50:06.861Z,15.38
2022-12-31T15:52:43.393Z,16.70
2022-12-31T15:55:41.259Z,15.80
2022-12-31T15:58:18.589Z,15.78
2022-12-31T16:01:17.302Z,15.30
2022-12-31T16:04:07.635Z,16.10
2022-12-31T16:06:38.101Z,15.70
2022-12-31T16:09:10.174Z,15.63
2022-12-31T16:11:41.489Z,16.02
2022-12-31T16:14:37.104Z,16.17
2022-12-31T16:17:07.256Z,16.25
2022-12-31T16:19:44.423Z,15.83
2022-12-31T16:25:29.155Z,14.60
2022-12-31T16:27:30.460Z,14.47
2022-12-31T16:30:04.788Z,16.55
2022-12-31T16:32:39.597Z,15.15
2022-12-31T16:35:26.812Z,15.18
2022-12-31T16:38:17.453Z,15.43
2022-12-31T16:41:10.995Z,15.40
2022-12-31T16:43:41.951Z,14.25
2022-12-31T16:46:28.080Z,14.55
2022-12-31T16:49:05.398Z,13.32
2022-12-31T16:51:35.302Z,14.95
2022-12-31T16:54:05.545Z,14.63
2022-12-31T16:56:38.901Z,14.43
2022-12-31T16:59:22.274Z,14.07
2022-12-31T17:01:51.150Z,13.75
2022-12-31T17:04:21.152Z,12.30
2022-12-31T17:06:50.899Z,13.55
2022-12-31T17:09:23.219Z,13.10
2022-12-31T17:12:01.079Z,13.43
2022-12-31T17:14:31.522Z,13.90
2022-12-31T17:17:07.213Z,13.83
2022-12-31T17:19:54.233Z,13.60
2022-12-31T17:22:37.011Z,14.03
2022-12-31T17:25:08.983Z,14.38
2022-12-31T17:27:39.774Z,12.93
2022-12-31T17:30:35.134Z,12.18
2022-12-31T17:33:24.870Z,13.08
2022-12-31T17:36:17.314Z,11.80
2022-12-31T17:38:46.880Z,13.45
2022-12-31T17:41:24.221Z,13.20
2022-12-31T17:43:58.358Z,13.08
2022-12-31T17:46:28.370Z,14.85
2022-12-31T17:49:02.032Z,17.00
2022-12-31T17:51:33.691Z,17.35
2022-12-31T17:54:03.622Z,15.40
2022-12-31T17:56:35.095Z,15.60
2022-12-31T17:59:04.795Z,13.68
2022-12-31T18:01:34.971Z,14.80
2022-12-31T18:04:11.060Z,13.62
2022-12-31T18:06:40.668Z,12.98
2022-12-31T18:09:10.417Z,13.45
2022-12-31T18:11:42.567Z,11.78
2022-12-31T18:14:14.899Z,12.63
2022-12-31T18:16:44.546Z,12.53
2022-12-31T18:19:37.787Z,13.38
2022-12-31T18:21:47.161Z,12.95
2022-12-31T18:24:24.227Z,12.47
2022-12-31T18:26:51.256Z,13.32
2022-12-31T18:29:22.843Z,13.28
2022-12-31T18:31:52.221Z,12.45
2022-12-31T18:34:21.641Z,12.68
2022-12-31T18:36:52.109Z,13.48
2022-12-31T18:39:21.311Z,13.58
2022-12-31T18:41:50.842Z,13.08
2022-12-31T18:44:20.831Z,13.28
2022-12-31T18:46:54.073Z,13.38
2022-12-31T18:49:24.610Z,13.50
2022-12-31T18:51:55.282Z,13.45
2022-12-31T18:54:25.810Z,13.32
2022-12-31T18:56:57.301Z,13.08
2022-12-31T18:59:27.181Z,13.43
2022-12-31T19:01:57.017Z,13.65
2022-12-31T19:04:28.457Z,13.03
2022-12-31T19:06:57.860Z,12.80
2022-12-31T19:09:45.977Z,13.40
2022-12-31T19:12:01.948Z,14.30
2022-12-31T19:14:32.783Z,12.58
2022-12-31T19:19:31.279Z,12.30
2022-12-31T19:22:01.315Z,12.03
2022-12-31T19:24:32.518Z,11.68
2022-12-31T19:27:02.520Z,11.57
2022-12-31T19:29:32.502Z,11.57
2022-12-31T19:32:02.422Z,12.33
2022-12-31T19:34:33.224Z,12.47
2022-12-31T19:37:03.191Z,11.90
2022-12-31T19:39:33.828Z,12.45
2022-12-31T19:42:04.038Z,11.35
2022-12-31T19:44:34.551Z,12.18
2022-12-31T19:47:06.087Z,12.45
2022-12-31T19:49:37.341Z,11.22
2022-12-31T19:52:07.159Z,10.13
2022-12-31T19:54:37.187Z,10.88
2022-12-31T19:57:09.246Z,10.65
2022-12-31T19:59:40.523Z,10.23
2022-12-31T20:02:10.930Z,11.48
2022-12-31T20:04:40.211Z,11.03
2022-12-31T20:07:10.664Z,11.88
2022-12-31T20:09:41.496Z,11.73
2022-12-31T20:12:11.489Z,11.55
2022-12-31T20:14:41.296Z,11.12
2022-12-31T20:17:12.049Z,10.93
2022-12-31T20:19:41.632Z,11.80
2022-12-31T20:22:11.275Z,11.25
2022-12-31T20:24:42.307Z,10.68
2022-12-31T20:27:18.144Z,11.53
2022-12-31T20:29:42.839Z,10.25
2022-12-31T20:32:15.637Z,10.75
2022-12-31T20:34:45.056Z,10.35
2022-12-31T20:37:14.781Z,10.82
2022-12-31T20:39:43.984Z,10.98
2022-12-31T20:42:14.053Z,10.45
2022-12-31T20:44:45.434Z,10.25
2022-12-31T20:47:16.034Z,10.78
2022-12-31T20:50:10.242Z,10.80
2022-12-31T20:52:17.759Z,11.20
2022-12-31T20:54:48.943Z,10.68
2022-12-31T20:57:18.507Z,10.82
2022-12-31T20:59:48.297Z,10.65
2022-12-31T21:02:21.328Z,10.38
2022-12-31T21:04:50.390Z,11.50
2022-12-31T21:07:21.023Z,10.35
2022-12-31T21:09:50.708Z,11.40
2022-12-31T21:12:40.764Z,11.35
2022-12-31T21:15:12.778Z,10.15
2022-12-31T21:17:43.380Z,11.50
2022-12-31T21:20:13.329Z,11.48
2022-12-31T21:22:43.026Z,11.05
2022-12-31T21:25:13.567Z,10.38
2022-12-31T21:27:42.971Z,10.48
2022-12-31T21:30:18.802Z,10.95
2022-12-31T21:32:46.829Z,10.75
2022-12-31T21:37:58.991Z,10.25
2022-12-31T21:40:23.241Z,10.50
2022-12-31T21:42:53.946Z,10.45
2022-12-31T21:45:23.747Z,10.10
2022-12-31T21:48:11.867Z,10.48
2022-12-31T21:50:42.491Z,10.93
2022-12-31T21:53:14.339Z,10.40
2022-12-31T21:56:04.448Z,10.82
2022-12-31T21:58:38.668Z,10.75
2022-12-31T22:01:26.988Z,11.25
2022-12-31T22:03:56.510Z,11.10
2022-12-31T22:06:26.321Z,11.10
2022-12-31T22:08:55.924Z,10.05
2022-12-31T22:11:28.373Z,10.35
2022-12-31T22:13:58.283Z,10.40
2022-12-31T22:16:27.838Z,11.57
2022-12-31T22:18:57.389Z,11.57
2022-12-31T22:21:27.506Z,12.10
2022-12-31T22:23:58.794Z,11.85
2022-12-31T22:26:29.360Z,11.22
2022-12-31T22:28:59.722Z,11.33
2022-12-31T22:31:30.361Z,11.80
2022-12-31T22:33:59.832Z,11.10
2022-12-31T22:36:29.357Z,11.28
2022-12-31T22:38:58.963Z,12.58
2022-12-31T22:41:30.387Z,12.33
2022-12-31T22:44:03.655Z,10.90
2022-12-31T22:46:32.241Z,11.45
2022-12-31T22:49:02.986Z,12.55
2022-12-31T22:51:56.581Z,12.55
2022-12-31T22:54:04.674Z,12.80
2022-12-31T22:56:34.361Z,12.90
2022-12-31T22:59:04.005Z,12.25
2022-12-31T23:01:34.923Z,12.50
2022-12-31T23:04:05.752Z,11.63
2022-12-31T23:06:37.366Z,11.85
2022-12-31T23:09:26.472Z,11.03
2022-12-31T23:11:59.281Z,12.07
2022-12-31T23:14:46.994Z,12.18
2022-12-31T23:17:38.225Z,12.43
2022-12-31T23:20:40.054Z,11.65
2022-12-31T23:23:15.484Z,11.28
2022-12-31T23:25:50.359Z,11.55
2022-12-31T23:28:23.421Z,11.90
2022-12-31T23:30:53.844Z,12.33
2022-12-31T23:33:25.448Z,11.45
2022-12-31T23:36:05.244Z,12.65
2022-12-31T23:38:34.896Z,11.45
2022-12-31T23:41:18.003Z,12.55
2022-12-31T23:43:47.404Z,11.50
2022-12-31T23:46:17.466Z,12.80
2022-12-31T23:48:47.285Z,11.25
2022-12-31T23:51:17.857Z,11.85
2022-12-31T23:53:47.249Z,11.57
2022-12-31T23:56:23.308Z,11.78
2022-12-31T23:58:55.914Z,12.30
